Terminal Aerodrome Forecast
Issued by NWS Twin Cities, MN

Home | Current Version | Previous Version | Graphics & Text | Print | Product List | Glossary On
Versions: 1 2 3 4 5 6 7 8 9 10 11
220
FTUS43 KMPX 272338
TAFSTC
TAF
KSTC 272338Z 2800/2824 05003KT P6SM SCT100
     FM280400 07003KT P6SM FEW250
     FM281000 VRB02KT 3SM BR FEW250
     FM281400 09006KT P6SM FEW250=

USA.gov is the U.S. government's official web portal to all federal, state and local government web resources and services.